sensor_id;sensor_type;location;lat;lon;timestamp;P1;durP1;ratioP1;P2;durP2;ratioP2
46713;SDS011;32445;51.376;10.874;2023-03-20T00:02:18;1.67;;;1.40;;
46713;SDS011;32445;51.376;10.874;2023-03-20T00:05:21;1.77;;;1.40;;
46713;SDS011;32445;51.376;10.874;2023-03-20T00:08:23;1.23;;;1.13;;
46713;SDS011;32445;51.376;10.874;2023-03-20T00:14:32;1.65;;;1.23;;
46713;SDS011;32445;51.376;10.874;2023-03-20T00:17:33;1.92;;;1.45;;
46713;SDS011;32445;51.376;10.874;2023-03-20T00:20:33;4.63;;;1.20;;
46713;SDS011;32445;51.376;10.874;2023-03-20T00:23:34;1.00;;;0.90;;
46713;SDS011;32445;51.376;10.874;2023-03-20T00:26:34;3.00;;;1.50;;
46713;SDS011;32445;51.376;10.874;2023-03-20T00:29:35;2.00;;;1.30;;
46713;SDS011;32445;51.376;10.874;2023-03-20T00:32:36;2.58;;;1.38;;
46713;SDS011;32445;51.376;10.874;2023-03-20T00:35:36;3.13;;;1.48;;
46713;SDS011;32445;51.376;10.874;2023-03-20T00:38:36;1.48;;;1.10;;
46713;SDS011;32445;51.376;10.874;2023-03-20T00:44:37;1.67;;;1.00;;
46713;SDS011;32445;51.376;10.874;2023-03-20T00:47:43;1.55;;;1.30;;
46713;SDS011;32445;51.376;10.874;2023-03-20T00:50:46;2.10;;;1.38;;
46713;SDS011;32445;51.376;10.874;2023-03-20T00:56:56;3.88;;;1.13;;
46713;SDS011;32445;51.376;10.874;2023-03-20T01:00:19;1.73;;;1.30;;
46713;SDS011;32445;51.376;10.874;2023-03-20T01:03:24;1.02;;;1.00;;
46713;SDS011;32445;51.376;10.874;2023-03-20T01:06:25;1.23;;;1.00;;
46713;SDS011;32445;51.376;10.874;2023-03-20T01:09:27;1.52;;;1.40;;
46713;SDS011;32445;51.376;10.874;2023-03-20T01:12:28;1.08;;;0.98;;
46713;SDS011;32445;51.376;10.874;2023-03-20T01:15:32;2.08;;;1.00;;
46713;SDS011;32445;51.376;10.874;2023-03-20T01:18:33;0.90;;;0.90;;
46713;SDS011;32445;51.376;10.874;2023-03-20T01:21:33;1.75;;;1.45;;
46713;SDS011;32445;51.376;10.874;2023-03-20T01:24:33;2.60;;;2.00;;
46713;SDS011;32445;51.376;10.874;2023-03-20T01:27:34;1.67;;;1.23;;
46713;SDS011;32445;51.376;10.874;2023-03-20T01:30:34;1.63;;;1.13;;
46713;SDS011;32445;51.376;10.874;2023-03-20T01:33:35;1.40;;;1.30;;
46713;SDS011;32445;51.376;10.874;2023-03-20T01:36:36;5.60;;;1.77;;
46713;SDS011;32445;51.376;10.874;2023-03-20T01:39:37;1.58;;;1.30;;
46713;SDS011;32445;51.376;10.874;2023-03-20T01:42:37;1.02;;;1.00;;
46713;SDS011;32445;51.376;10.874;2023-03-20T01:45:38;1.00;;;0.98;;
46713;SDS011;32445;51.376;10.874;2023-03-20T01:51:49;1.30;;;1.15;;
46713;SDS011;32445;51.376;10.874;2023-03-20T01:57:51;1.50;;;1.40;;
46713;SDS011;32445;51.376;10.874;2023-03-20T02:00:54;3.80;;;1.52;;
46713;SDS011;32445;51.376;10.874;2023-03-20T02:03:55;3.88;;;1.85;;
46713;SDS011;32445;51.376;10.874;2023-03-20T02:06:56;5.93;;;2.10;;
46713;SDS011;32445;51.376;10.874;2023-03-20T02:09:56;8.07;;;3.00;;
46713;SDS011;32445;51.376;10.874;2023-03-20T02:12:57;3.83;;;2.17;;
46713;SDS011;32445;51.376;10.874;2023-03-20T02:16:06;7.75;;;2.65;;
46713;SDS011;32445;51.376;10.874;2023-03-20T02:19:14;3.78;;;1.95;;
46713;SDS011;32445;51.376;10.874;2023-03-20T02:22:43;2.92;;;1.40;;
46713;SDS011;32445;51.376;10.874;2023-03-20T02:26:19;9.80;;;2.40;;
46713;SDS011;32445;51.376;10.874;2023-03-20T02:32:39;4.00;;;1.95;;
46713;SDS011;32445;51.376;10.874;2023-03-20T02:45:47;1.48;;;1.10;;
46713;SDS011;32445;51.376;10.874;2023-03-20T02:49:17;1.92;;;1.20;;
46713;SDS011;32445;51.376;10.874;2023-03-20T03:02:42;4.97;;;2.05;;
46713;SDS011;32445;51.376;10.874;2023-03-20T03:05:55;1.55;;;1.45;;
46713;SDS011;32445;51.376;10.874;2023-03-20T03:09:05;1.50;;;1.40;;
46713;SDS011;32445;51.376;10.874;2023-03-20T03:12:18;1.63;;;1.27;;
46713;SDS011;32445;51.376;10.874;2023-03-20T03:15:27;1.23;;;1.13;;
46713;SDS011;32445;51.376;10.874;2023-03-20T03:18:31;2.05;;;1.40;;
46713;SDS011;32445;51.376;10.874;2023-03-20T03:21:35;1.25;;;1.15;;
46713;SDS011;32445;51.376;10.874;2023-03-20T03:24:43;4.18;;;1.55;;
46713;SDS011;32445;51.376;10.874;2023-03-20T03:27:46;2.85;;;1.00;;
46713;SDS011;32445;51.376;10.874;2023-03-20T03:30:52;3.60;;;1.90;;
46713;SDS011;32445;51.376;10.874;2023-03-20T03:33:54;2.13;;;1.80;;
46713;SDS011;32445;51.376;10.874;2023-03-20T03:37:05;1.98;;;1.65;;
46713;SDS011;32445;51.376;10.874;2023-03-20T03:40:26;2.15;;;1.52;;
46713;SDS011;32445;51.376;10.874;2023-03-20T03:49:36;1.30;;;1.20;;
46713;SDS011;32445;51.376;10.874;2023-03-20T03:52:42;2.40;;;1.73;;
46713;SDS011;32445;51.376;10.874;2023-03-20T03:55:47;2.42;;;1.50;;
46713;SDS011;32445;51.376;10.874;2023-03-20T03:58:54;2.85;;;1.70;;
46713;SDS011;32445;51.376;10.874;2023-03-20T04:01:58;2.88;;;1.30;;
46713;SDS011;32445;51.376;10.874;2023-03-20T04:05:02;1.20;;;1.10;;
46713;SDS011;32445;51.376;10.874;2023-03-20T04:08:06;1.70;;;1.60;;
46713;SDS011;32445;51.376;10.874;2023-03-20T04:11:08;1.52;;;1.42;;
46713;SDS011;32445;51.376;10.874;2023-03-20T04:14:15;1.95;;;1.80;;
46713;SDS011;32445;51.376;10.874;2023-03-20T04:17:15;3.35;;;1.92;;
46713;SDS011;32445;51.376;10.874;2023-03-20T04:20:16;4.35;;;1.70;;
46713;SDS011;32445;51.376;10.874;2023-03-20T04:23:17;2.22;;;1.70;;
46713;SDS011;32445;51.376;10.874;2023-03-20T04:26:17;3.90;;;2.15;;
46713;SDS011;32445;51.376;10.874;2023-03-20T04:29:18;2.30;;;2.10;;
46713;SDS011;32445;51.376;10.874;2023-03-20T04:32:18;1.67;;;1.58;;
46713;SDS011;32445;51.376;10.874;2023-03-20T04:35:19;2.92;;;2.72;;
46713;SDS011;32445;51.376;10.874;2023-03-20T04:38:19;2.80;;;2.60;;
46713;SDS011;32445;51.376;10.874;2023-03-20T04:41:20;2.97;;;2.67;;
46713;SDS011;32445;51.376;10.874;2023-03-20T04:44:20;4.78;;;4.38;;
46713;SDS011;32445;51.376;10.874;2023-03-20T04:47:21;6.03;;;4.40;;
46713;SDS011;32445;51.376;10.874;2023-03-20T04:50:21;5.60;;;5.20;;
46713;SDS011;32445;51.376;10.874;2023-03-20T04:53:21;4.38;;;3.95;;
46713;SDS011;32445;51.376;10.874;2023-03-20T04:56:22;4.05;;;3.60;;
46713;SDS011;32445;51.376;10.874;2023-03-20T04:59:22;4.28;;;3.95;;
46713;SDS011;32445;51.376;10.874;2023-03-20T05:02:23;6.50;;;4.88;;
46713;SDS011;32445;51.376;10.874;2023-03-20T05:05:23;5.25;;;4.75;;
46713;SDS011;32445;51.376;10.874;2023-03-20T05:08:24;12.80;;;9.38;;
46713;SDS011;32445;51.376;10.874;2023-03-20T05:11:25;11.27;;;9.65;;
46713;SDS011;32445;51.376;10.874;2023-03-20T05:14:26;15.95;;;14.18;;
46713;SDS011;32445;51.376;10.874;2023-03-20T05:17:26;19.67;;;17.63;;
46713;SDS011;32445;51.376;10.874;2023-03-20T05:20:26;21.10;;;18.98;;
46713;SDS011;32445;51.376;10.874;2023-03-20T05:23:27;21.13;;;18.52;;
46713;SDS011;32445;51.376;10.874;2023-03-20T05:26:27;20.98;;;18.70;;
46713;SDS011;32445;51.376;10.874;2023-03-20T05:29:27;20.00;;;17.90;;
46713;SDS011;32445;51.376;10.874;2023-03-20T05:32:28;16.95;;;15.35;;
46713;SDS011;32445;51.376;10.874;2023-03-20T05:35:28;21.70;;;17.50;;
46713;SDS011;32445;51.376;10.874;2023-03-20T05:38:28;17.38;;;15.68;;
46713;SDS011;32445;51.376;10.874;2023-03-20T05:41:29;18.17;;;16.50;;
46713;SDS011;32445;51.376;10.874;2023-03-20T05:44:29;18.13;;;16.42;;
46713;SDS011;32445;51.376;10.874;2023-03-20T05:47:29;19.05;;;16.92;;
46713;SDS011;32445;51.376;10.874;2023-03-20T05:50:30;19.23;;;17.17;;
46713;SDS011;32445;51.376;10.874;2023-03-20T05:53:30;20.35;;;16.67;;
46713;SDS011;32445;51.376;10.874;2023-03-20T05:56:30;21.73;;;17.63;;
46713;SDS011;32445;51.376;10.874;2023-03-20T05:59:31;20.95;;;18.75;;
46713;SDS011;32445;51.376;10.874;2023-03-20T06:02:31;20.05;;;17.70;;
46713;SDS011;32445;51.376;10.874;2023-03-20T06:05:32;21.17;;;18.67;;
46713;SDS011;32445;51.376;10.874;2023-03-20T06:08:33;22.15;;;18.67;;
46713;SDS011;32445;51.376;10.874;2023-03-20T06:11:35;17.83;;;16.05;;
46713;SDS011;32445;51.376;10.874;2023-03-20T06:14:36;21.70;;;18.80;;
46713;SDS011;32445;51.376;10.874;2023-03-20T06:17:36;21.23;;;16.67;;
46713;SDS011;32445;51.376;10.874;2023-03-20T06:20:36;24.77;;;20.30;;
46713;SDS011;32445;51.376;10.874;2023-03-20T06:23:37;22.25;;;19.30;;
46713;SDS011;32445;51.376;10.874;2023-03-20T06:26:37;25.90;;;19.08;;
46713;SDS011;32445;51.376;10.874;2023-03-20T06:29:38;26.88;;;19.23;;
46713;SDS011;32445;51.376;10.874;2023-03-20T06:32:38;25.98;;;19.33;;
46713;SDS011;32445;51.376;10.874;2023-03-20T06:35:39;23.88;;;19.50;;
46713;SDS011;32445;51.376;10.874;2023-03-20T06:38:39;25.92;;;20.35;;
46713;SDS011;32445;51.376;10.874;2023-03-20T06:41:40;24.60;;;19.00;;
46713;SDS011;32445;51.376;10.874;2023-03-20T06:44:40;22.75;;;18.55;;
46713;SDS011;32445;51.376;10.874;2023-03-20T06:47:40;24.15;;;19.13;;
46713;SDS011;32445;51.376;10.874;2023-03-20T06:50:41;25.13;;;19.95;;
46713;SDS011;32445;51.376;10.874;2023-03-20T06:53:41;26.35;;;18.90;;
46713;SDS011;32445;51.376;10.874;2023-03-20T06:56:43;23.35;;;20.50;;
46713;SDS011;32445;51.376;10.874;2023-03-20T06:59:45;27.10;;;20.00;;
46713;SDS011;32445;51.376;10.874;2023-03-20T07:02:46;27.35;;;20.73;;
46713;SDS011;32445;51.376;10.874;2023-03-20T07:05:47;25.40;;;20.40;;
46713;SDS011;32445;51.376;10.874;2023-03-20T07:08:48;31.98;;;22.33;;
46713;SDS011;32445;51.376;10.874;2023-03-20T07:11:50;28.60;;;22.88;;
46713;SDS011;32445;51.376;10.874;2023-03-20T07:14:50;34.90;;;23.67;;
46713;SDS011;32445;51.376;10.874;2023-03-20T07:17:51;33.40;;;23.63;;
46713;SDS011;32445;51.376;10.874;2023-03-20T07:20:52;29.77;;;22.93;;
46713;SDS011;32445;51.376;10.874;2023-03-20T07:23:54;38.15;;;23.08;;
46713;SDS011;32445;51.376;10.874;2023-03-20T07:26:54;34.30;;;25.65;;
46713;SDS011;32445;51.376;10.874;2023-03-20T07:29:55;30.77;;;24.80;;
46713;SDS011;32445;51.376;10.874;2023-03-20T07:32:55;36.10;;;25.10;;
46713;SDS011;32445;51.376;10.874;2023-03-20T07:35:56;45.72;;;29.20;;
46713;SDS011;32445;51.376;10.874;2023-03-20T07:38:56;41.53;;;29.13;;
46713;SDS011;32445;51.376;10.874;2023-03-20T07:41:57;41.72;;;28.27;;
46713;SDS011;32445;51.376;10.874;2023-03-20T07:44:57;43.85;;;26.90;;
46713;SDS011;32445;51.376;10.874;2023-03-20T07:47:57;34.83;;;26.15;;
46713;SDS011;32445;51.376;10.874;2023-03-20T07:50:57;34.72;;;26.17;;
46713;SDS011;32445;51.376;10.874;2023-03-20T07:53:58;33.88;;;25.80;;
46713;SDS011;32445;51.376;10.874;2023-03-20T07:56:58;44.90;;;27.60;;
46713;SDS011;32445;51.376;10.874;2023-03-20T07:59:59;39.78;;;26.73;;
46713;SDS011;32445;51.376;10.874;2023-03-20T08:02:59;34.05;;;24.48;;
46713;SDS011;32445;51.376;10.874;2023-03-20T08:05:59;34.83;;;25.00;;
46713;SDS011;32445;51.376;10.874;2023-03-20T08:09:00;43.70;;;27.53;;
46713;SDS011;32445;51.376;10.874;2023-03-20T08:12:01;36.53;;;26.00;;
46713;SDS011;32445;51.376;10.874;2023-03-20T08:15:01;42.97;;;28.15;;
46713;SDS011;32445;51.376;10.874;2023-03-20T08:18:02;32.63;;;24.77;;
46713;SDS011;32445;51.376;10.874;2023-03-20T08:21:03;44.00;;;26.70;;
46713;SDS011;32445;51.376;10.874;2023-03-20T08:24:03;37.20;;;27.35;;
46713;SDS011;32445;51.376;10.874;2023-03-20T08:27:05;36.17;;;27.23;;
46713;SDS011;32445;51.376;10.874;2023-03-20T08:30:05;39.70;;;27.27;;
46713;SDS011;32445;51.376;10.874;2023-03-20T08:33:06;38.37;;;26.50;;
46713;SDS011;32445;51.376;10.874;2023-03-20T08:36:07;37.50;;;26.13;;
46713;SDS011;32445;51.376;10.874;2023-03-20T08:39:07;42.33;;;26.67;;
46713;SDS011;32445;51.376;10.874;2023-03-20T08:42:08;42.03;;;25.98;;
46713;SDS011;32445;51.376;10.874;2023-03-20T08:45:08;44.85;;;28.15;;
46713;SDS011;32445;51.376;10.874;2023-03-20T08:48:10;40.15;;;27.00;;
46713;SDS011;32445;51.376;10.874;2023-03-20T08:51:10;38.03;;;26.98;;
46713;SDS011;32445;51.376;10.874;2023-03-20T08:54:10;36.27;;;25.07;;
46713;SDS011;32445;51.376;10.874;2023-03-20T08:57:11;37.60;;;25.50;;
46713;SDS011;32445;51.376;10.874;2023-03-20T09:00:11;36.03;;;26.13;;
46713;SDS011;32445;51.376;10.874;2023-03-20T09:03:15;40.97;;;26.70;;
46713;SDS011;32445;51.376;10.874;2023-03-20T09:06:18;38.38;;;27.48;;
46713;SDS011;32445;51.376;10.874;2023-03-20T09:09:18;35.42;;;25.55;;
46713;SDS011;32445;51.376;10.874;2023-03-20T09:12:20;37.70;;;26.63;;
46713;SDS011;32445;51.376;10.874;2023-03-20T09:15:21;40.88;;;28.52;;
46713;SDS011;32445;51.376;10.874;2023-03-20T09:18:21;37.75;;;26.67;;
46713;SDS011;32445;51.376;10.874;2023-03-20T09:21:22;35.00;;;26.40;;
46713;SDS011;32445;51.376;10.874;2023-03-20T09:24:23;39.50;;;25.77;;
46713;SDS011;32445;51.376;10.874;2023-03-20T09:27:23;37.97;;;25.63;;
46713;SDS011;32445;51.376;10.874;2023-03-20T09:30:23;32.67;;;25.40;;
46713;SDS011;32445;51.376;10.874;2023-03-20T09:33:24;41.33;;;27.40;;
46713;SDS011;32445;51.376;10.874;2023-03-20T09:36:25;41.67;;;27.87;;
46713;SDS011;32445;51.376;10.874;2023-03-20T09:39:25;34.00;;;25.10;;
46713;SDS011;32445;51.376;10.874;2023-03-20T09:45:38;32.70;;;25.55;;
46713;SDS011;32445;51.376;10.874;2023-03-20T09:52:25;37.55;;;25.55;;
46713;SDS011;32445;51.376;10.874;2023-03-20T09:55:32;37.58;;;26.17;;
46713;SDS011;32445;51.376;10.874;2023-03-20T09:58:35;38.80;;;26.08;;
46713;SDS011;32445;51.376;10.874;2023-03-20T10:01:56;36.60;;;25.90;;
46713;SDS011;32445;51.376;10.874;2023-03-20T10:05:01;36.35;;;25.83;;
46713;SDS011;32445;51.376;10.874;2023-03-20T10:08:03;29.90;;;23.98;;
46713;SDS011;32445;51.376;10.874;2023-03-20T10:23:41;29.65;;;22.58;;
46713;SDS011;32445;51.376;10.874;2023-03-20T10:26:50;31.23;;;21.65;;
46713;SDS011;32445;51.376;10.874;2023-03-20T10:33:05;27.73;;;22.98;;
46713;SDS011;32445;51.376;10.874;2023-03-20T10:36:14;33.13;;;24.63;;
46713;SDS011;32445;51.376;10.874;2023-03-20T10:43:18;30.90;;;23.27;;
46713;SDS011;32445;51.376;10.874;2023-03-20T10:50:00;33.13;;;24.88;;
46713;SDS011;32445;51.376;10.874;2023-03-20T10:53:04;33.70;;;23.63;;
46713;SDS011;32445;51.376;10.874;2023-03-20T10:56:29;34.10;;;24.55;;
46713;SDS011;32445;51.376;10.874;2023-03-20T10:59:44;32.97;;;23.38;;
46713;SDS011;32445;51.376;10.874;2023-03-20T11:02:48;29.63;;;23.00;;
46713;SDS011;32445;51.376;10.874;2023-03-20T11:06:24;30.20;;;21.60;;
46713;SDS011;32445;51.376;10.874;2023-03-20T11:09:20;28.88;;;22.33;;
46713;SDS011;32445;51.376;10.874;2023-03-20T11:12:23;29.75;;;21.48;;
46713;SDS011;32445;51.376;10.874;2023-03-20T11:15:31;27.83;;;22.63;;
46713;SDS011;32445;51.376;10.874;2023-03-20T11:18:33;24.05;;;19.95;;
46713;SDS011;32445;51.376;10.874;2023-03-20T11:21:34;21.87;;;19.17;;
46713;SDS011;32445;51.376;10.874;2023-03-20T11:24:45;26.00;;;19.55;;
46713;SDS011;32445;51.376;10.874;2023-03-20T11:27:50;23.42;;;18.58;;
46713;SDS011;32445;51.376;10.874;2023-03-20T11:31:36;25.08;;;19.60;;
46713;SDS011;32445;51.376;10.874;2023-03-20T11:34:25;19.97;;;17.80;;
46713;SDS011;32445;51.376;10.874;2023-03-20T11:37:32;24.08;;;18.02;;
46713;SDS011;32445;51.376;10.874;2023-03-20T11:40:34;24.52;;;18.90;;
46713;SDS011;32445;51.376;10.874;2023-03-20T11:43:36;20.80;;;17.60;;
46713;SDS011;32445;51.376;10.874;2023-03-20T11:46:40;24.67;;;18.65;;
46713;SDS011;32445;51.376;10.874;2023-03-20T11:49:44;21.60;;;17.53;;
46713;SDS011;32445;51.376;10.874;2023-03-20T11:52:53;18.10;;;16.27;;
46713;SDS011;32445;51.376;10.874;2023-03-20T11:56:35;17.53;;;15.03;;
46713;SDS011;32445;51.376;10.874;2023-03-20T11:59:25;18.37;;;16.20;;
46713;SDS011;32445;51.376;10.874;2023-03-20T12:02:32;17.65;;;15.88;;
46713;SDS011;32445;51.376;10.874;2023-03-20T12:05:36;17.02;;;15.10;;
46713;SDS011;32445;51.376;10.874;2023-03-20T12:08:38;17.63;;;15.05;;
46713;SDS011;32445;51.376;10.874;2023-03-20T12:18:00;14.90;;;11.77;;
46713;SDS011;32445;51.376;10.874;2023-03-20T12:31:38;18.48;;;16.40;;
46713;SDS011;32445;51.376;10.874;2023-03-20T12:34:46;26.13;;;21.05;;
46713;SDS011;32445;51.376;10.874;2023-03-20T12:37:53;28.88;;;20.50;;
46713;SDS011;32445;51.376;10.874;2023-03-20T12:40:56;31.73;;;21.90;;
46713;SDS011;32445;51.376;10.874;2023-03-20T12:50:31;39.38;;;24.95;;
46713;SDS011;32445;51.376;10.874;2023-03-20T13:00:21;39.25;;;28.42;;
46713;SDS011;32445;51.376;10.874;2023-03-20T13:03:29;38.80;;;27.75;;
46713;SDS011;32445;51.376;10.874;2023-03-20T13:13:22;44.05;;;30.95;;
46713;SDS011;32445;51.376;10.874;2023-03-20T13:19:58;45.45;;;32.03;;
46713;SDS011;32445;51.376;10.874;2023-03-20T13:23:45;46.08;;;30.92;;
46713;SDS011;32445;51.376;10.874;2023-03-20T13:27:29;51.53;;;34.38;;
46713;SDS011;32445;51.376;10.874;2023-03-20T13:30:35;54.10;;;34.05;;
46713;SDS011;32445;51.376;10.874;2023-03-20T13:47:19;43.65;;;30.63;;
46713;SDS011;32445;51.376;10.874;2023-03-20T13:57:21;50.60;;;30.70;;
46713;SDS011;32445;51.376;10.874;2023-03-20T14:00:29;44.35;;;30.13;;
46713;SDS011;32445;51.376;10.874;2023-03-20T14:03:37;41.10;;;28.55;;
46713;SDS011;32445;51.376;10.874;2023-03-20T14:06:43;44.53;;;28.95;;
46713;SDS011;32445;51.376;10.874;2023-03-20T14:09:44;42.80;;;30.30;;
46713;SDS011;32445;51.376;10.874;2023-03-20T14:13:04;43.10;;;28.43;;
46713;SDS011;32445;51.376;10.874;2023-03-20T14:16:12;40.53;;;29.60;;
46713;SDS011;32445;51.376;10.874;2023-03-20T14:19:16;39.60;;;29.15;;
46713;SDS011;32445;51.376;10.874;2023-03-20T14:22:25;44.22;;;30.85;;
46713;SDS011;32445;51.376;10.874;2023-03-20T14:25:28;49.63;;;33.88;;
46713;SDS011;32445;51.376;10.874;2023-03-20T14:29:36;38.65;;;29.42;;
46713;SDS011;32445;51.376;10.874;2023-03-20T14:41:30;36.72;;;26.00;;
46713;SDS011;32445;51.376;10.874;2023-03-20T14:57:26;34.92;;;27.52;;
46713;SDS011;32445;51.376;10.874;2023-03-20T15:00:34;34.22;;;25.33;;
46713;SDS011;32445;51.376;10.874;2023-03-20T15:03:46;37.80;;;28.02;;
46713;SDS011;32445;51.376;10.874;2023-03-20T15:10:22;34.88;;;24.92;;
46713;SDS011;32445;51.376;10.874;2023-03-20T15:13:24;32.47;;;25.15;;
46713;SDS011;32445;51.376;10.874;2023-03-20T15:16:28;30.50;;;21.63;;
46713;SDS011;32445;51.376;10.874;2023-03-20T15:19:30;29.75;;;22.55;;
46713;SDS011;32445;51.376;10.874;2023-03-20T15:22:32;25.88;;;21.05;;
46713;SDS011;32445;51.376;10.874;2023-03-20T15:28:46;32.45;;;22.60;;
46713;SDS011;32445;51.376;10.874;2023-03-20T15:31:54;17.00;;;14.82;;
46713;SDS011;32445;51.376;10.874;2023-03-20T15:34:57;10.10;;;9.20;;
46713;SDS011;32445;51.376;10.874;2023-03-20T15:37:57;8.27;;;7.60;;
46713;SDS011;32445;51.376;10.874;2023-03-20T15:41:05;11.15;;;10.07;;
46713;SDS011;32445;51.376;10.874;2023-03-20T15:47:22;26.02;;;21.40;;
46713;SDS011;32445;51.376;10.874;2023-03-20T15:50:23;26.02;;;20.35;;
46713;SDS011;32445;51.376;10.874;2023-03-20T15:53:45;27.53;;;21.13;;
46713;SDS011;32445;51.376;10.874;2023-03-20T15:56:47;23.58;;;19.85;;
46713;SDS011;32445;51.376;10.874;2023-03-20T15:59:51;30.23;;;22.73;;
46713;SDS011;32445;51.376;10.874;2023-03-20T16:02:52;23.67;;;20.33;;
46713;SDS011;32445;51.376;10.874;2023-03-20T16:05:52;22.90;;;20.10;;
46713;SDS011;32445;51.376;10.874;2023-03-20T16:09:01;23.15;;;18.65;;
46713;SDS011;32445;51.376;10.874;2023-03-20T16:12:06;20.98;;;18.88;;
46713;SDS011;32445;51.376;10.874;2023-03-20T16:15:15;26.13;;;19.88;;
46713;SDS011;32445;51.376;10.874;2023-03-20T16:18:17;19.52;;;17.63;;
46713;SDS011;32445;51.376;10.874;2023-03-20T16:21:22;21.43;;;19.33;;
46713;SDS011;32445;51.376;10.874;2023-03-20T16:24:28;21.90;;;17.75;;
46713;SDS011;32445;51.376;10.874;2023-03-20T16:27:34;21.75;;;18.05;;
46713;SDS011;32445;51.376;10.874;2023-03-20T16:30:36;20.17;;;17.52;;
46713;SDS011;32445;51.376;10.874;2023-03-20T16:33:37;18.30;;;16.33;;
46713;SDS011;32445;51.376;10.874;2023-03-20T16:36:38;20.42;;;18.42;;
46713;SDS011;32445;51.376;10.874;2023-03-20T16:39:39;19.00;;;17.20;;
46713;SDS011;32445;51.376;10.874;2023-03-20T16:42:39;23.63;;;21.17;;
46713;SDS011;32445;51.376;10.874;2023-03-20T16:45:41;8.13;;;7.20;;
46713;SDS011;32445;51.376;10.874;2023-03-20T16:48:44;5.70;;;5.22;;
46713;SDS011;32445;51.376;10.874;2023-03-20T16:51:44;4.90;;;4.50;;
46713;SDS011;32445;51.376;10.874;2023-03-20T16:54:45;7.17;;;4.63;;
46713;SDS011;32445;51.376;10.874;2023-03-20T16:57:46;8.83;;;5.90;;
46713;SDS011;32445;51.376;10.874;2023-03-20T17:00:56;8.23;;;6.18;;
46713;SDS011;32445;51.376;10.874;2023-03-20T17:04:18;7.90;;;7.05;;
46713;SDS011;32445;51.376;10.874;2023-03-20T17:10:27;5.80;;;5.30;;
46713;SDS011;32445;51.376;10.874;2023-03-20T17:13:28;7.33;;;6.57;;
46713;SDS011;32445;51.376;10.874;2023-03-20T17:16:29;12.17;;;10.87;;
46713;SDS011;32445;51.376;10.874;2023-03-20T17:19:30;11.82;;;10.82;;
46713;SDS011;32445;51.376;10.874;2023-03-20T17:22:32;14.48;;;13.07;;
46713;SDS011;32445;51.376;10.874;2023-03-20T17:25:32;12.77;;;11.60;;
46713;SDS011;32445;51.376;10.874;2023-03-20T17:28:33;10.97;;;10.00;;
46713;SDS011;32445;51.376;10.874;2023-03-20T17:31:36;10.32;;;9.32;;
46713;SDS011;32445;51.376;10.874;2023-03-20T17:34:36;11.53;;;10.53;;
46713;SDS011;32445;51.376;10.874;2023-03-20T17:37:36;11.77;;;10.60;;
46713;SDS011;32445;51.376;10.874;2023-03-20T17:40:37;12.77;;;11.67;;
46713;SDS011;32445;51.376;10.874;2023-03-20T17:43:37;20.93;;;17.47;;
46713;SDS011;32445;51.376;10.874;2023-03-20T17:46:38;16.57;;;14.67;;
46713;SDS011;32445;51.376;10.874;2023-03-20T17:49:38;19.27;;;16.50;;
46713;SDS011;32445;51.376;10.874;2023-03-20T17:52:38;15.83;;;14.47;;
46713;SDS011;32445;51.376;10.874;2023-03-20T17:55:39;16.08;;;14.63;;
46713;SDS011;32445;51.376;10.874;2023-03-20T17:58:40;15.23;;;13.80;;
46713;SDS011;32445;51.376;10.874;2023-03-20T18:01:43;13.60;;;12.27;;
46713;SDS011;32445;51.376;10.874;2023-03-20T18:04:44;16.10;;;12.90;;
46713;SDS011;32445;51.376;10.874;2023-03-20T18:07:45;13.82;;;12.43;;
46713;SDS011;32445;51.376;10.874;2023-03-20T18:10:46;12.73;;;11.53;;
46713;SDS011;32445;51.376;10.874;2023-03-20T18:13:48;15.73;;;14.18;;
46713;SDS011;32445;51.376;10.874;2023-03-20T18:16:48;16.73;;;15.23;;
46713;SDS011;32445;51.376;10.874;2023-03-20T18:19:48;13.37;;;12.20;;
46713;SDS011;32445;51.376;10.874;2023-03-20T18:22:49;13.30;;;12.07;;
46713;SDS011;32445;51.376;10.874;2023-03-20T18:25:49;16.20;;;14.57;;
46713;SDS011;32445;51.376;10.874;2023-03-20T18:28:50;15.27;;;13.87;;
46713;SDS011;32445;51.376;10.874;2023-03-20T18:31:52;17.85;;;16.15;;
46713;SDS011;32445;51.376;10.874;2023-03-20T18:34:52;21.77;;;19.53;;
46713;SDS011;32445;51.376;10.874;2023-03-20T18:37:53;20.17;;;18.25;;
46713;SDS011;32445;51.376;10.874;2023-03-20T18:40:53;21.20;;;19.03;;
46713;SDS011;32445;51.376;10.874;2023-03-20T18:43:54;18.77;;;16.93;;
46713;SDS011;32445;51.376;10.874;2023-03-20T18:46:54;22.08;;;19.73;;
46713;SDS011;32445;51.376;10.874;2023-03-20T18:49:55;18.63;;;16.83;;
46713;SDS011;32445;51.376;10.874;2023-03-20T18:52:56;18.60;;;16.73;;
46713;SDS011;32445;51.376;10.874;2023-03-20T18:55:57;16.33;;;14.60;;
46713;SDS011;32445;51.376;10.874;2023-03-20T18:58:59;15.40;;;14.00;;
46713;SDS011;32445;51.376;10.874;2023-03-20T19:01:59;15.43;;;14.23;;
46713;SDS011;32445;51.376;10.874;2023-03-20T19:05:00;16.63;;;15.18;;
46713;SDS011;32445;51.376;10.874;2023-03-20T19:08:00;15.10;;;13.77;;
46713;SDS011;32445;51.376;10.874;2023-03-20T19:11:02;13.82;;;12.68;;
46713;SDS011;32445;51.376;10.874;2023-03-20T19:14:02;13.27;;;11.77;;
46713;SDS011;32445;51.376;10.874;2023-03-20T19:17:03;11.80;;;10.80;;
46713;SDS011;32445;51.376;10.874;2023-03-20T19:20:03;9.98;;;9.18;;
46713;SDS011;32445;51.376;10.874;2023-03-20T19:23:06;10.23;;;9.48;;
46713;SDS011;32445;51.376;10.874;2023-03-20T19:26:11;9.95;;;8.23;;
46713;SDS011;32445;51.376;10.874;2023-03-20T19:29:15;9.00;;;8.23;;
46713;SDS011;32445;51.376;10.874;2023-03-20T19:32:17;10.38;;;9.35;;
46713;SDS011;32445;51.376;10.874;2023-03-20T19:35:17;8.55;;;7.85;;
46713;SDS011;32445;51.376;10.874;2023-03-20T19:38:18;9.70;;;7.33;;
46713;SDS011;32445;51.376;10.874;2023-03-20T19:41:20;8.40;;;7.60;;
46713;SDS011;32445;51.376;10.874;2023-03-20T19:44:20;8.43;;;7.72;;
46713;SDS011;32445;51.376;10.874;2023-03-20T19:47:21;8.10;;;7.43;;
46713;SDS011;32445;51.376;10.874;2023-03-20T19:53:22;6.85;;;6.35;;
46713;SDS011;32445;51.376;10.874;2023-03-20T19:56:23;7.75;;;7.18;;
46713;SDS011;32445;51.376;10.874;2023-03-20T19:59:24;8.45;;;7.60;;
46713;SDS011;32445;51.376;10.874;2023-03-20T20:02:25;7.18;;;6.57;;
46713;SDS011;32445;51.376;10.874;2023-03-20T20:05:35;8.38;;;6.30;;
46713;SDS011;32445;51.376;10.874;2023-03-20T20:08:38;8.05;;;7.45;;
46713;SDS011;32445;51.376;10.874;2023-03-20T20:11:39;8.73;;;7.80;;
46713;SDS011;32445;51.376;10.874;2023-03-20T20:14:40;8.15;;;7.45;;
46713;SDS011;32445;51.376;10.874;2023-03-20T20:17:40;7.88;;;7.18;;
46713;SDS011;32445;51.376;10.874;2023-03-20T20:20:41;7.30;;;6.65;;
46713;SDS011;32445;51.376;10.874;2023-03-20T20:23:42;7.00;;;6.13;;
46713;SDS011;32445;51.376;10.874;2023-03-20T20:26:46;10.07;;;7.25;;
46713;SDS011;32445;51.376;10.874;2023-03-20T20:29:50;6.43;;;5.93;;
46713;SDS011;32445;51.376;10.874;2023-03-20T20:32:52;6.90;;;6.30;;
46713;SDS011;32445;51.376;10.874;2023-03-20T20:35:52;8.18;;;5.80;;
46713;SDS011;32445;51.376;10.874;2023-03-20T20:38:53;6.13;;;5.53;;
46713;SDS011;32445;51.376;10.874;2023-03-20T20:41:53;5.80;;;4.88;;
46713;SDS011;32445;51.376;10.874;2023-03-20T20:44:54;6.28;;;4.85;;